Harbine, Nebraska
Current Conditions -  °F | °C
As of 2:15 PM on Monday 26 Jan 2015 (Local Time) from KBIE Reporting Station
Clear Clear  
Wind Chill: 62°   Ceiling: Unl
Heat Index: 62°   Visibility: 10mi
Dew Point: 32°   Wind: 17mph
Humidity: 33%   Direction: 330°NNW
Pressure: 29.95"   Gusts: NA
Location:  40.219°N, 97.0292°W
Report Text: KBIE 262015Z AUTO 33015KT 10SM CLR 17/00 A2995 RMK AO2 T01660000
Loading
Personal Weather Stations






























Interactive Weather Map New forecast layout! Learn more

10-Day Weather Forecast

Advertisements
Track Severe Weather on mobile